Terminal Aerodrome Forecast
Issued by NWS

Home | Current Version | Previous Version | Text Only | Print | Product List | Glossary On
Versions: 1 2 3 4 5 6 7 8 9 10 11 12 13 14 15 16 17 18 19 20 21 22 23
000
FTUS41 KCAR 021100
TAFBHB
TAF
KBHB 021120Z 0212/0312 VRB03KT P6SM OVC010
     FM021500 03008KT P6SM SCT015
     FM021800 03007KT P6SM SCT250
     FM030500 03005KT 2SM BR SKC
      AMD LTD TO CLD VIS AND WIND=

USA.gov is the U.S. government's official web portal to all federal, state and local government web resources and services.